Time;durP1;ratioP1;P1;durP2;ratioP2;P2;SDS_P1;SDS_P2;PMS_P1;PMS_P2;Temp;Humidity;BMP_temperature;BMP_pressure;BME280_temperature;BME280_humidity;BME280_pressure;Samples;Min_cycle;Max_cycle;Signal;HPM_P1;HPM_P2
2023/05/04 00:00:48;;;;;;;3.45;2.80;;;19.50;49.00;;;;;;5033885;28;20219;-76
2023/05/04 00:03:15;;;;;;;3.47;2.42;;;19.40;48.90;;;;;;5034091;28;20310;-76
2023/05/04 00:05:42;;;;;;;2.70;2.50;;;19.50;49.00;;;;;;5033431;28;20270;-78
2023/05/04 00:08:10;;;;;;;2.55;2.35;;;19.40;49.20;;;;;;5033919;28;20200;-78
2023/05/04 00:10:37;;;;;;;3.00;2.70;;;19.40;49.00;;;;;;5033878;28;20572;-78
2023/05/04 00:13:05;;;;;;;3.28;2.83;;;19.40;49.20;;;;;;5033687;28;20220;-78
2023/05/04 00:15:32;;;;;;;2.70;2.50;;;19.40;49.00;;;;;;5033684;28;20655;-78
2023/05/04 00:18:01;;;;;;;2.90;2.70;;;19.40;49.20;;;;;;5033754;28;20283;-78
2023/05/04 00:20:27;;;;;;;2.90;2.70;;;19.30;49.20;;;;;;5033749;28;20196;-78
2023/05/04 00:22:54;;;;;;;2.45;2.25;;;19.40;49.30;;;;;;5034791;28;20216;-78
2023/05/04 00:25:22;;;;;;;2.97;2.67;;;19.30;49.20;;;;;;5033959;28;20626;-78
2023/05/04 00:27:49;;;;;;;2.63;2.45;;;19.30;49.30;;;;;;5034725;28;20327;-78
2023/05/04 00:30:16;;;;;;;3.03;2.72;;;19.30;49.20;;;;;;5034243;28;20214;-78
2023/05/04 00:32:43;;;;;;;2.80;2.60;;;19.30;49.10;;;;;;5033673;28;20766;-77
2023/05/04 00:35:11;;;;;;;2.90;2.60;;;19.30;49.20;;;;;;5033941;28;20187;-77
2023/05/04 00:37:38;;;;;;;2.85;2.65;;;19.30;49.20;;;;;;5033938;28;20192;-77
2023/05/04 00:40:07;;;;;;;2.60;2.40;;;19.20;49.20;;;;;;5033369;28;20250;-78
2023/05/04 00:42:35;;;;;;;2.80;2.60;;;19.20;49.20;;;;;;5034008;28;20220;-78
2023/05/04 00:45:02;;;;;;;3.47;2.70;;;19.20;49.10;;;;;;5033175;28;20220;-78
2023/05/04 00:47:29;;;;;;;2.75;2.55;;;19.20;49.20;;;;;;5033047;28;20200;-78
2023/05/04 00:49:56;;;;;;;3.00;2.80;;;19.20;49.40;;;;;;5033405;28;20192;-78
2023/05/04 00:52:25;;;;;;;2.75;2.55;;;19.20;49.40;;;;;;5033079;28;20230;-78
2023/05/04 00:54:54;;;;;;;3.67;3.13;;;19.10;49.40;;;;;;5033205;28;20242;-76
2023/05/04 00:57:21;;;;;;;3.08;2.80;;;19.20;49.40;;;;;;5032856;28;20211;-76
2023/05/04 00:59:48;;;;;;;2.72;2.50;;;19.20;49.40;;;;;;5032831;28;20203;-78
2023/05/04 01:02:16;;;;;;;2.92;2.50;;;19.20;49.60;;;;;;5016518;28;20269;-78
2023/05/04 01:04:43;;;;;;;2.75;2.55;;;19.10;49.50;;;;;;5032600;28;20283;-78
2023/05/04 01:07:13;;;;;;;2.70;2.50;;;19.10;49.50;;;;;;5032466;28;20200;-78
2023/05/04 01:09:44;;;;;;;2.70;2.50;;;19.10;49.50;;;;;;5032681;28;20203;-78
2023/05/04 01:12:14;;;;;;;2.80;2.50;;;19.10;49.50;;;;;;5033096;28;20212;-78
2023/05/04 01:14:41;;;;;;;2.95;2.75;;;19.10;49.50;;;;;;5032953;28;20195;-78
2023/05/04 01:17:08;;;;;;;2.92;2.72;;;19.10;49.50;;;;;;5032814;28;20200;-78
2023/05/04 01:19:36;;;;;;;3.28;2.65;;;19.00;49.40;;;;;;5032816;28;20196;-78
2023/05/04 01:22:05;;;;;;;3.50;2.50;;;19.00;49.40;;;;;;5033397;28;20573;-78
2023/05/04 01:24:33;;;;;;;2.80;2.60;;;19.10;49.50;;;;;;5034070;28;20219;-78
2023/05/04 01:27:03;;;;;;;3.38;2.78;;;19.00;49.40;;;;;;5033757;28;20192;-78
2023/05/04 01:29:32;;;;;;;2.72;2.53;;;19.00;49.40;;;;;;5016502;28;20196;-78
2023/05/04 01:31:59;;;;;;;2.97;2.78;;;19.00;49.40;;;;;;5032261;28;20316;-78
2023/05/04 01:34:26;;;;;;;3.13;2.83;;;19.00;49.50;;;;;;5033500;28;20220;-78
2023/05/04 01:36:54;;;;;;;3.33;2.78;;;19.00;49.50;;;;;;5032477;28;20272;-77
2023/05/04 01:39:22;;;;;;;3.40;3.10;;;19.00;49.60;;;;;;5032547;28;20200;-77
2023/05/04 01:41:50;;;;;;;2.85;2.60;;;19.00;49.40;;;;;;5032264;28;20686;-77
2023/05/04 01:44:17;;;;;;;3.08;2.88;;;18.90;49.60;;;;;;5032388;28;20207;-77
2023/05/04 01:46:44;;;;;;;3.28;2.97;;;18.90;49.50;;;;;;5032415;28;20293;-77
2023/05/04 01:49:11;;;;;;;3.13;2.75;;;18.90;49.50;;;;;;5032453;28;20558;-77
2023/05/04 01:51:38;;;;;;;3.20;2.90;;;18.90;49.50;;;;;;5033093;28;20203;-77
2023/05/04 01:54:06;;;;;;;3.25;2.90;;;18.90;49.60;;;;;;5032571;28;20690;-77
2023/05/04 01:56:34;;;;;;;3.22;3.03;;;18.90;49.50;;;;;;5016355;28;20219;-77
2023/05/04 01:59:01;;;;;;;3.22;2.85;;;18.90;49.50;;;;;;5032499;28;20706;-77
2023/05/04 02:01:28;;;;;;;3.40;3.20;;;18.90;49.80;;;;;;5032380;28;20663;-77
2023/05/04 02:03:55;;;;;;;2.92;2.72;;;18.90;49.60;;;;;;5015841;28;20215;-77
2023/05/04 02:06:22;;;;;;;2.90;2.70;;;18.80;49.70;;;;;;5032267;28;20208;-77
2023/05/04 02:08:50;;;;;;;3.33;3.03;;;18.80;49.80;;;;;;5032524;28;20214;-77
2023/05/04 02:11:17;;;;;;;3.30;3.00;;;18.80;49.70;;;;;;5031861;28;20196;-77
2023/05/04 02:13:47;;;;;;;3.00;2.80;;;18.80;50.00;;;;;;5031880;28;20255;-77
2023/05/04 02:16:14;;;;;;;3.40;3.10;;;18.80;49.90;;;;;;5031790;28;20224;-77
2023/05/04 02:18:41;;;;;;;3.00;2.70;;;18.80;49.90;;;;;;5031910;28;20612;-77
2023/05/04 02:21:08;;;;;;;2.97;2.78;;;18.80;50.00;;;;;;5031756;28;20202;-78
2023/05/04 02:23:36;;;;;;;3.10;2.90;;;18.80;50.10;;;;;;5031744;28;20635;-78
2023/05/04 02:26:02;;;;;;;3.50;3.20;;;18.70;49.90;;;;;;5031577;28;20212;-78
2023/05/04 02:28:30;;;;;;;3.33;3.03;;;18.80;50.00;;;;;;5036343;28;20733;-78
2023/05/04 02:30:58;;;;;;;2.92;2.63;;;18.70;50.00;;;;;;5036789;28;20247;-77
2023/05/04 02:33:26;;;;;;;3.28;2.97;;;18.70;50.10;;;;;;5035177;28;20216;-77
2023/05/04 02:35:53;;;;;;;3.22;2.92;;;18.70;50.00;;;;;;5035246;28;20203;-77
2023/05/04 02:38:19;;;;;;;2.90;2.70;;;18.70;50.10;;;;;;5018943;28;20200;-77
2023/05/04 02:40:46;;;;;;;3.63;3.33;;;18.70;50.10;;;;;;5035293;28;20211;-77
2023/05/04 02:43:14;;;;;;;3.05;2.85;;;18.70;50.00;;;;;;5035174;28;20587;-77
2023/05/04 02:45:41;;;;;;;3.38;3.05;;;18.70;50.00;;;;;;5034830;28;20220;-77
2023/05/04 02:48:10;;;;;;;3.17;2.97;;;18.70;50.10;;;;;;5035139;28;20199;-77
2023/05/04 02:50:37;;;;;;;3.50;3.20;;;18.70;50.10;;;;;;5036599;28;20192;-77
2023/05/04 02:53:04;;;;;;;3.92;3.20;;;18.60;50.10;;;;;;5035450;28;20244;-77
2023/05/04 02:55:31;;;;;;;3.10;2.90;;;18.60;50.00;;;;;;5034944;28;20195;-77
2023/05/04 02:57:58;;;;;;;3.45;3.10;;;18.60;50.00;;;;;;5034736;28;20239;-77
2023/05/04 03:00:26;;;;;;;3.22;3.03;;;18.60;50.10;;;;;;5034947;28;20211;-77
2023/05/04 03:02:53;;;;;;;3.28;2.97;;;18.60;50.10;;;;;;5034746;28;20258;-77
2023/05/04 03:05:22;;;;;;;3.17;2.90;;;18.60;50.10;;;;;;5034788;28;20216;-77
2023/05/04 03:07:50;;;;;;;3.13;2.92;;;18.60;50.10;;;;;;5034800;28;20218;-77
2023/05/04 03:10:17;;;;;;;3.97;2.85;;;18.60;50.00;;;;;;5034763;28;20196;-77
2023/05/04 03:12:45;;;;;;;4.10;3.42;;;18.60;49.90;;;;;;5034759;28;20763;-77
2023/05/04 03:15:12;;;;;;;3.42;3.13;;;18.60;50.00;;;;;;5034703;28;20204;-77
2023/05/04 03:17:39;;;;;;;3.60;3.30;;;18.60;50.00;;;;;;5035811;28;20184;-77
2023/05/04 03:20:08;;;;;;;3.58;3.28;;;18.60;49.90;;;;;;5034781;28;20232;-77
2023/05/04 03:22:37;;;;;;;3.45;3.15;;;18.60;50.00;;;;;;5037128;28;20220;-77
2023/05/04 03:25:05;;;;;;;3.35;3.15;;;18.60;49.90;;;;;;5036656;28;20310;-77
2023/05/04 03:27:32;;;;;;;3.30;3.10;;;18.60;49.80;;;;;;5034237;28;20192;-77
2023/05/04 03:30:00;;;;;;;3.20;3.00;;;18.60;49.80;;;;;;5034369;28;20235;-77
2023/05/04 03:32:27;;;;;;;3.38;3.08;;;18.60;49.80;;;;;;5034437;28;20216;-77
2023/05/04 03:34:55;;;;;;;3.13;2.92;;;18.60;49.70;;;;;;5034215;28;20199;-77
2023/05/04 03:37:24;;;;;;;3.50;3.20;;;18.60;49.90;;;;;;5034276;28;20283;-78
2023/05/04 03:39:52;;;;;;;3.03;2.83;;;18.60;50.10;;;;;;5017846;28;20195;-78
2023/05/04 03:42:20;;;;;;;3.53;3.33;;;18.60;50.00;;;;;;5034883;28;20247;-78
2023/05/04 03:44:47;;;;;;;3.70;3.40;;;18.70;49.80;;;;;;5034394;28;20200;-78
2023/05/04 03:47:14;;;;;;;3.22;3.03;;;18.60;49.60;;;;;;5034013;28;20734;-78
2023/05/04 03:49:42;;;;;;;3.78;3.47;;;18.70;49.80;;;;;;5035298;28;20196;-78
2023/05/04 03:52:08;;;;;;;3.63;3.33;;;18.70;49.80;;;;;;5034065;28;20223;-78
2023/05/04 03:54:37;;;;;;;3.60;3.00;;;18.70;49.80;;;;;;5034079;28;20275;-78
2023/05/04 03:57:06;;;;;;;3.83;3.53;;;18.60;49.70;;;;;;5034210;28;20200;-78
2023/05/04 03:59:34;;;;;;;3.42;3.13;;;18.60;49.60;;;;;;5034459;28;20200;-78
2023/05/04 04:02:04;;;;;;;4.10;3.70;;;18.60;49.60;;;;;;5034105;28;20265;-78
2023/05/04 04:04:32;;;;;;;3.55;3.35;;;18.70;49.60;;;;;;5033884;28;20196;-78
2023/05/04 04:06:59;;;;;;;3.65;3.35;;;18.70;49.60;;;;;;5033816;28;20219;-78
2023/05/04 04:09:29;;;;;;;3.90;3.60;;;18.70;49.50;;;;;;5034243;28;20195;-78
2023/05/04 04:11:56;;;;;;;3.50;3.20;;;18.70;49.70;;;;;;5033964;28;20272;-78
2023/05/04 04:14:25;;;;;;;3.17;2.97;;;18.70;49.40;;;;;;5034937;28;20198;-78
2023/05/04 04:16:53;;;;;;;3.53;3.25;;;18.70;49.50;;;;;;5034377;28;20192;-77
2023/05/04 04:19:20;;;;;;;3.70;3.33;;;18.70;49.50;;;;;;5033453;28;20195;-77
2023/05/04 04:21:47;;;;;;;3.70;3.40;;;18.70;49.50;;;;;;5033382;28;20659;-77
2023/05/04 04:24:14;;;;;;;3.58;3.28;;;18.70;49.60;;;;;;5033510;28;20266;-77
2023/05/04 04:26:42;;;;;;;3.80;3.30;;;18.70;49.50;;;;;;5033210;28;20212;-77
2023/05/04 04:29:09;;;;;;;3.35;3.10;;;18.70;49.50;;;;;;5033382;28;20251;-77
2023/05/04 04:31:38;;;;;;;3.28;3.08;;;18.70;49.40;;;;;;5032933;28;20214;-78
2023/05/04 04:34:06;;;;;;;3.50;3.20;;;18.70;50.10;;;;;;5033194;28;20298;-78
2023/05/04 04:36:33;;;;;;;3.33;3.10;;;18.70;49.60;;;;;;5033043;28;20184;-78
2023/05/04 04:39:00;;;;;;;3.30;3.10;;;18.80;49.50;;;;;;5033400;28;20196;-78
2023/05/04 04:41:28;;;;;;;3.70;3.40;;;18.80;49.60;;;;;;5033000;28;20647;-78
2023/05/04 04:43:55;;;;;;;3.97;3.30;;;18.80;49.40;;;;;;5033259;28;20227;-78
2023/05/04 04:46:22;;;;;;;3.75;3.45;;;18.80;49.40;;;;;;5032865;28;20243;-78
2023/05/04 04:48:52;;;;;;;3.65;3.35;;;18.80;49.60;;;;;;5032977;28;20203;-78
2023/05/04 04:51:19;;;;;;;3.55;3.25;;;18.80;49.50;;;;;;5032266;28;20634;-76
2023/05/04 04:53:46;;;;;;;3.70;3.40;;;18.80;49.30;;;;;;5032756;28;20220;-77
2023/05/04 04:56:13;;;;;;;3.70;3.40;;;18.90;49.40;;;;;;5017044;28;20200;-77
2023/05/04 04:58:40;;;;;;;3.15;2.95;;;18.90;49.40;;;;;;5032917;28;20714;-77
2023/05/04 05:01:07;;;;;;;3.80;3.40;;;19.00;49.40;;;;;;5033166;28;20195;-77
2023/05/04 05:03:35;;;;;;;3.35;3.05;;;19.00;49.20;;;;;;5032798;28;20254;-77
2023/05/04 05:06:03;;;;;;;3.90;3.60;;;19.00;49.00;;;;;;5035140;28;20207;-81
2023/05/04 05:08:32;;;;;;;3.55;3.25;;;19.10;49.00;;;;;;5033836;28;20196;-81
2023/05/04 05:10:59;;;;;;;4.00;3.70;;;19.20;49.00;;;;;;5033542;28;20556;-80
2023/05/04 05:13:26;;;;;;;4.35;3.28;;;19.30;48.80;;;;;;5034092;28;20216;-80
2023/05/04 05:15:54;;;;;;;5.68;4.13;;;19.40;49.00;;;;;;5034298;28;20203;-80
2023/05/04 05:18:21;;;;;;;4.65;3.38;;;19.50;48.80;;;;;;5034642;28;20596;-80
2023/05/04 05:20:49;;;;;;;3.92;3.63;;;19.60;48.80;;;;;;5033873;28;20199;-80
2023/05/04 05:23:17;;;;;;;3.60;3.30;;;19.70;48.80;;;;;;5048264;28;20223;-80
2023/05/04 05:25:44;;;;;;;3.90;3.60;;;19.90;48.60;;;;;;5047672;28;20204;-80
2023/05/04 05:28:11;;;;;;;4.05;3.70;;;20.10;48.40;;;;;;5039095;28;20196;-80
2023/05/04 05:30:38;;;;;;;4.00;3.70;;;20.20;47.90;;;;;;5037088;28;20208;-80
2023/05/04 05:33:06;;;;;;;3.58;3.17;;;20.40;47.80;;;;;;5036801;28;20273;-80
2023/05/04 05:35:33;;;;;;;4.25;3.35;;;20.60;47.60;;;;;;5037012;28;20188;-80
2023/05/04 05:38:00;;;;;;;4.95;3.40;;;20.70;47.40;;;;;;5035285;28;20582;-80
2023/05/04 05:40:29;;;;;;;4.43;3.50;;;20.80;47.20;;;;;;5034552;28;20204;-80
2023/05/04 05:42:56;;;;;;;3.72;3.42;;;21.00;47.10;;;;;;5038555;28;20228;-80
2023/05/04 05:45:23;;;;;;;3.60;3.30;;;21.20;46.90;;;;;;5035281;28;20670;-80
2023/05/04 05:47:50;;;;;;;3.40;3.05;;;21.30;46.80;;;;;;5035628;28;20253;-80
2023/05/04 05:50:18;;;;;;;3.85;3.35;;;21.40;46.80;;;;;;5035136;28;20264;-82
2023/05/04 05:52:46;;;;;;;3.50;3.20;;;21.50;46.70;;;;;;5035589;28;20266;-81
2023/05/04 05:55:12;;;;;;;3.85;3.45;;;21.60;46.50;;;;;;5019370;28;20247;-81
2023/05/04 05:57:41;;;;;;;4.03;3.72;;;21.70;46.20;;;;;;5036645;28;20199;-81
2023/05/04 06:00:09;;;;;;;4.20;3.55;;;21.80;46.00;;;;;;5035243;28;20196;-81
2023/05/04 06:02:39;;;;;;;3.95;3.65;;;21.90;45.90;;;;;;5037102;28;20218;-81
2023/05/04 06:05:07;;;;;;;4.22;3.67;;;21.90;45.80;;;;;;5038717;28;20211;-81
2023/05/04 06:07:34;;;;;;;4.15;3.80;;;22.10;45.80;;;;;;5022043;28;20227;-81
2023/05/04 06:10:03;;;;;;;4.13;3.72;;;22.20;45.60;;;;;;5038375;28;20195;-82
2023/05/04 06:12:30;;;;;;;5.13;3.83;;;22.30;45.40;;;;;;5038531;28;20625;-82
2023/05/04 06:14:58;;;;;;;4.35;3.95;;;22.40;45.90;;;;;;5038503;28;20204;-81
2023/05/04 06:17:25;;;;;;;5.07;4.57;;;22.50;45.00;;;;;;5038486;28;20630;-82
2023/05/04 06:19:52;;;;;;;6.47;4.63;;;22.60;44.80;;;;;;5038016;28;20200;-81
2023/05/04 06:22:19;;;;;;;4.57;3.42;;;22.70;44.60;;;;;;5038033;28;20220;-79
2023/05/04 06:24:46;;;;;;;4.30;3.90;;;22.80;44.40;;;;;;5038045;28;20211;-79
2023/05/04 06:27:13;;;;;;;4.82;4.32;;;22.90;44.20;;;;;;5037165;28;20220;-79
2023/05/04 06:29:41;;;;;;;5.75;4.18;;;23.00;44.00;;;;;;5036768;28;20659;-79
2023/05/04 06:32:09;;;;;;;4.88;4.30;;;23.10;43.90;;;;;;5037311;28;20249;-78
2023/05/04 06:34:37;;;;;;;4.90;4.40;;;23.10;43.70;;;;;;5039657;28;20679;-79
2023/05/04 06:37:04;;;;;;;3.45;3.15;;;23.20;43.50;;;;;;5038293;28;20196;-77
2023/05/04 06:39:31;;;;;;;4.05;3.65;;;23.30;43.40;;;;;;5040857;28;20228;-77
2023/05/04 06:41:59;;;;;;;4.90;4.28;;;23.40;43.30;;;;;;5035043;28;20215;-77
2023/05/04 06:44:27;;;;;;;4.47;3.42;;;23.50;43.10;;;;;;5060383;28;20183;-77
2023/05/04 06:47:14;;;;;;;3.58;3.25;;;23.60;42.90;;;;;;5056550;28;20243;-79
2023/05/04 06:50:19;;;;;;;3.22;2.97;;;23.60;42.70;;;;;;5049956;28;20248;-79
2023/05/04 06:53:02;;;;;;;3.92;3.53;;;23.70;42.60;;;;;;5044054;28;20278;-78
2023/05/04 06:55:37;;;;;;;3.58;3.15;;;23.80;42.40;;;;;;5039508;28;20262;-79
2023/05/04 06:58:17;;;;;;;2.95;2.75;;;23.90;42.30;;;;;;5038027;28;20188;-79
2023/05/04 07:00:48;;;;;;;4.75;3.35;;;23.90;42.10;;;;;;5038021;28;20206;-79
2023/05/04 07:03:15;;;;;;;2.95;2.75;;;24.00;42.00;;;;;;5036294;28;20318;-79
2023/05/04 07:05:44;;;;;;;3.97;2.90;;;24.00;41.80;;;;;;5036700;28;20286;-78
2023/05/04 07:08:11;;;;;;;3.10;2.90;;;24.10;41.70;;;;;;5036698;28;20223;-78
2023/05/04 07:10:38;;;;;;;3.00;2.80;;;24.20;41.70;;;;;;5036464;28;20292;-78
2023/05/04 07:13:06;;;;;;;3.15;2.80;;;24.20;41.50;;;;;;5035915;28;20274;-78
2023/05/04 07:15:34;;;;;;;3.10;2.90;;;24.30;41.40;;;;;;5036463;28;20196;-78
2023/05/04 07:18:01;;;;;;;3.05;2.85;;;24.30;41.40;;;;;;5036389;28;20192;-78
2023/05/04 07:20:28;;;;;;;3.28;2.80;;;24.30;41.20;;;;;;5035810;28;20216;-77
2023/05/04 07:22:56;;;;;;;2.80;2.60;;;24.40;41.20;;;;;;5035693;28;20630;-77
2023/05/04 07:25:24;;;;;;;3.35;2.60;;;24.50;41.10;;;;;;5036197;28;20204;-77
2023/05/04 07:27:51;;;;;;;2.90;2.70;;;24.50;40.90;;;;;;5035744;28;20640;-77
2023/05/04 07:30:19;;;;;;;3.00;2.78;;;24.50;40.80;;;;;;5035847;28;20215;-77
2023/05/04 07:32:46;;;;;;;2.80;2.60;;;24.60;40.80;;;;;;5037204;28;20277;-77
2023/05/04 07:35:13;;;;;;;3.10;2.80;;;24.60;40.60;;;;;;5035628;28;20196;-78
2023/05/04 07:37:41;;;;;;;4.03;3.05;;;24.70;40.70;;;;;;5037062;28;20191;-78
2023/05/04 07:40:12;;;;;;;3.20;2.90;;;24.70;40.40;;;;;;5036962;28;20238;-78
2023/05/04 07:42:39;;;;;;;2.95;2.75;;;24.70;40.40;;;;;;5035969;28;20224;-78
2023/05/04 07:45:08;;;;;;;2.85;2.65;;;24.80;40.40;;;;;;5035381;28;20215;-78
2023/05/04 07:47:39;;;;;;;2.88;2.67;;;24.90;40.30;;;;;;5025794;28;20266;-78
2023/05/04 07:50:08;;;;;;;2.90;2.70;;;24.90;40.20;;;;;;5041153;28;20207;-78
2023/05/04 07:52:35;;;;;;;2.92;2.72;;;24.90;40.20;;;;;;5037499;28;20726;-79
2023/05/04 07:55:02;;;;;;;2.90;2.70;;;24.90;40.10;;;;;;5035394;28;20686;-79
2023/05/04 07:57:32;;;;;;;3.33;3.03;;;24.90;40.10;;;;;;5035260;28;20188;-78
2023/05/04 08:00:00;;;;;;;2.78;2.58;;;24.90;40.00;;;;;;5035568;28;20254;-78
2023/05/04 08:02:27;;;;;;;3.00;2.80;;;25.00;40.00;;;;;;5034892;28;20600;-78
2023/05/04 08:04:55;;;;;;;2.85;2.65;;;25.00;39.80;;;;;;5035201;28;20242;-79
2023/05/04 08:07:22;;;;;;;2.63;2.42;;;25.10;39.70;;;;;;5036113;28;20274;-79
2023/05/04 08:09:51;;;;;;;2.70;2.50;;;25.10;39.70;;;;;;5034945;28;20196;-77
2023/05/04 08:12:18;;;;;;;2.58;2.38;;;25.20;39.60;;;;;;5034925;28;20311;-76
2023/05/04 08:14:48;;;;;;;2.97;2.67;;;25.20;39.50;;;;;;5034628;28;20271;-76
2023/05/04 08:17:15;;;;;;;3.58;2.70;;;25.30;39.40;;;;;;5034721;28;20204;-76
2023/05/04 08:19:42;;;;;;;2.80;2.60;;;25.30;39.30;;;;;;5035147;28;20199;-76
2023/05/04 08:22:10;;;;;;;3.55;2.58;;;25.30;39.30;;;;;;5034836;28;20216;-76
2023/05/04 08:24:37;;;;;;;2.80;2.60;;;25.40;39.40;;;;;;5034806;28;20199;-76
2023/05/04 08:27:05;;;;;;;2.90;2.70;;;25.30;39.40;;;;;;5018644;28;20222;-76
2023/05/04 08:29:32;;;;;;;2.95;2.75;;;25.40;39.40;;;;;;5018917;28;20670;-76
2023/05/04 08:32:00;;;;;;;3.28;2.92;;;25.40;39.40;;;;;;5035306;28;20205;-76
2023/05/04 08:34:27;;;;;;;2.75;2.55;;;25.30;39.30;;;;;;5035021;28;20204;-76
2023/05/04 08:36:54;;;;;;;2.72;2.53;;;25.40;39.30;;;;;;5036163;28;20188;-77
2023/05/04 08:39:21;;;;;;;2.78;2.58;;;25.40;39.20;;;;;;5034339;28;20283;-77
2023/05/04 08:41:49;;;;;;;2.75;2.55;;;25.50;39.10;;;;;;5036690;28;20219;-76
2023/05/04 08:44:17;;;;;;;2.80;2.60;;;25.50;39.10;;;;;;5036094;28;20196;-76
2023/05/04 08:46:44;;;;;;;3.00;2.72;;;25.50;39.10;;;;;;5035309;28;20254;-76
2023/05/04 08:49:13;;;;;;;2.70;2.50;;;25.60;39.00;;;;;;5034981;28;20200;-77
2023/05/04 08:51:40;;;;;;;3.08;2.88;;;25.60;38.80;;;;;;5034912;28;20278;-76
2023/05/04 08:54:09;;;;;;;2.92;2.72;;;25.70;38.70;;;;;;5034874;28;20227;-77
2023/05/04 08:56:37;;;;;;;2.72;2.53;;;25.70;38.60;;;;;;5034963;28;20207;-77
2023/05/04 08:59:04;;;;;;;2.60;2.40;;;25.70;38.60;;;;;;5036352;28;20192;-76
2023/05/04 09:01:32;;;;;;;2.30;2.20;;;25.80;38.60;;;;;;5036665;28;20613;-76
2023/05/04 09:04:00;;;;;;;2.83;2.63;;;25.80;38.40;;;;;;5037043;28;20591;-77
2023/05/04 09:06:28;;;;;;;2.80;2.55;;;25.90;38.50;;;;;;5035563;28;20238;-76
2023/05/04 09:08:56;;;;;;;2.83;2.63;;;25.90;38.40;;;;;;5035451;28;20686;-76
2023/05/04 09:11:23;;;;;;;2.72;2.53;;;25.90;38.40;;;;;;5035272;28;20210;-77
2023/05/04 09:13:50;;;;;;;2.60;2.40;;;25.90;38.30;;;;;;5034841;28;20226;-77
2023/05/04 09:16:18;;;;;;;2.67;2.47;;;25.90;38.40;;;;;;5035892;28;20211;-77
2023/05/04 09:18:46;;;;;;;2.90;2.70;;;25.90;38.30;;;;;;5035101;28;20650;-77
2023/05/04 09:21:13;;;;;;;2.85;2.65;;;25.90;38.40;;;;;;5034708;28;20573;-77
2023/05/04 09:23:48;;;;;;;2.60;2.40;;;25.90;38.40;;;;;;5034624;28;20219;-76
2023/05/04 09:26:26;;;;;;;2.67;2.50;;;25.90;38.50;;;;;;5035016;28;20635;-77
2023/05/04 09:28:53;;;;;;;2.78;2.58;;;25.90;38.50;;;;;;5034429;28;20211;-76
2023/05/04 09:31:20;;;;;;;2.80;2.60;;;25.90;38.60;;;;;;5035306;28;20238;-77
2023/05/04 09:33:47;;;;;;;2.47;2.28;;;25.80;38.50;;;;;;5034756;28;20319;-77
2023/05/04 09:36:16;;;;;;;2.70;2.50;;;25.80;38.50;;;;;;5034968;28;20257;-76
2023/05/04 09:38:43;;;;;;;2.85;2.65;;;25.80;38.50;;;;;;5039965;28;20257;-76
2023/05/04 09:41:11;;;;;;;2.55;2.35;;;25.80;38.60;;;;;;5039590;28;20211;-76
2023/05/04 09:43:39;;;;;;;2.50;2.30;;;25.80;38.60;;;;;;5042412;28;20214;-76
2023/05/04 09:46:07;;;;;;;2.50;2.30;;;25.70;38.70;;;;;;5039103;28;20196;-77
2023/05/04 09:48:35;;;;;;;2.63;2.42;;;25.70;38.70;;;;;;5038965;28;20265;-77
2023/05/04 09:51:05;;;;;;;2.80;2.60;;;25.70;38.70;;;;;;5038303;28;20207;-76
2023/05/04 09:53:32;;;;;;;2.55;2.35;;;25.70;38.80;;;;;;5038556;28;20215;-76
2023/05/04 09:56:09;;;;;;;2.90;2.58;;;25.70;38.90;;;;;;5038067;28;20237;-76
2023/05/04 09:58:39;;;;;;;2.95;2.42;;;25.60;38.90;;;;;;5022016;28;20194;-76
2023/05/04 10:01:05;;;;;;;3.08;2.53;;;25.60;38.90;;;;;;5038150;28;20192;-76
2023/05/04 10:03:33;;;;;;;2.47;2.28;;;25.60;39.00;;;;;;5038232;28;20239;-77
2023/05/04 10:06:00;;;;;;;2.95;2.75;;;25.60;39.00;;;;;;5039109;28;20207;-76
2023/05/04 10:08:27;;;;;;;2.75;2.55;;;25.60;39.10;;;;;;5039259;28;20262;-77
2023/05/04 10:10:54;;;;;;;3.13;2.50;;;25.50;39.00;;;;;;5038441;28;20287;-77
2023/05/04 10:13:21;;;;;;;2.65;2.45;;;25.50;39.10;;;;;;5039728;28;20223;-76
2023/05/04 10:15:55;;;;;;;2.70;2.50;;;25.40;39.20;;;;;;5037324;28;20204;-76
2023/05/04 10:18:25;;;;;;;2.50;2.30;;;25.40;39.30;;;;;;5037256;28;20197;-77
2023/05/04 10:21:00;;;;;;;2.78;2.58;;;25.40;39.40;;;;;;5037439;28;20253;-77
2023/05/04 10:23:36;;;;;;;2.80;2.60;;;25.40;39.60;;;;;;5037356;28;20216;-77
2023/05/04 10:26:14;;;;;;;2.63;2.45;;;25.30;39.70;;;;;;5036962;28;20196;-77
2023/05/04 10:28:46;;;;;;;2.30;2.20;;;25.30;39.70;;;;;;5037669;28;20600;-77
2023/05/04 10:31:14;;;;;;;2.55;2.35;;;25.20;39.80;;;;;;5038222;28;20203;-77
2023/05/04 10:33:42;;;;;;;2.55;2.35;;;25.20;39.80;;;;;;5036846;28;20224;-76
2023/05/04 10:36:09;;;;;;;2.55;2.35;;;25.10;39.80;;;;;;5036826;28;20310;-77
2023/05/04 10:38:36;;;;;;;2.80;2.60;;;25.10;39.90;;;;;;5038149;28;20188;-77
2023/05/04 10:41:14;;;;;;;2.50;2.30;;;25.10;40.00;;;;;;5037286;28;20203;-77
2023/05/04 10:43:41;;;;;;;2.42;2.22;;;25.10;40.10;;;;;;5021377;28;20215;-77
2023/05/04 10:46:20;;;;;;;2.50;2.30;;;25.00;40.20;;;;;;5037074;28;20234;-77
2023/05/04 10:48:47;;;;;;;2.80;2.60;;;24.90;40.20;;;;;;5035747;28;20216;-77
2023/05/04 10:51:18;;;;;;;2.45;2.25;;;24.90;40.30;;;;;;5036843;28;20196;-76
2023/05/04 10:53:45;;;;;;;2.60;2.42;;;24.90;40.50;;;;;;5036294;28;20220;-76
2023/05/04 10:56:21;;;;;;;2.70;2.50;;;24.90;40.60;;;;;;5036367;28;20291;-77
2023/05/04 10:58:48;;;;;;;2.30;2.20;;;24.80;40.50;;;;;;5037536;28;20176;-77
2023/05/04 11:01:16;;;;;;;2.60;2.40;;;24.70;40.70;;;;;;5036508;28;20215;-78
2023/05/04 11:03:44;;;;;;;2.20;2.10;;;24.70;40.80;;;;;;5036419;28;20246;-78
2023/05/04 11:06:18;;;;;;;2.40;2.30;;;24.60;40.80;;;;;;5036710;28;20204;-78
2023/05/04 11:08:58;;;;;;;2.78;2.58;;;24.60;41.00;;;;;;5035829;28;20208;-78
2023/05/04 11:11:25;;;;;;;2.70;2.50;;;24.60;41.10;;;;;;5036103;28;20234;-78
2023/05/04 11:13:52;;;;;;;2.80;2.60;;;24.50;41.00;;;;;;5036068;28;20247;-78
2023/05/04 11:16:23;;;;;;;2.50;2.30;;;24.50;41.00;;;;;;5037673;28;20199;-77
2023/05/04 11:18:51;;;;;;;2.40;2.28;;;24.60;41.10;;;;;;5036321;28;20196;-77
2023/05/04 11:21:23;;;;;;;2.60;2.40;;;24.60;41.10;;;;;;5020270;28;20204;-77
2023/05/04 11:23:54;;;;;;;2.70;2.50;;;24.60;41.10;;;;;;5020893;28;20220;-77
2023/05/04 11:26:22;;;;;;;2.50;2.30;;;24.60;41.10;;;;;;5036414;28;20250;-77
2023/05/04 11:28:49;;;;;;;2.40;2.20;;;24.60;41.00;;;;;;5036196;28;20698;-77
2023/05/04 11:31:16;;;;;;;2.75;2.55;;;24.60;41.10;;;;;;5036113;28;20210;-78
2023/05/04 11:33:47;;;;;;;2.97;2.67;;;24.60;41.10;;;;;;5035440;28;20231;-77
2023/05/04 11:36:15;;;;;;;2.33;2.13;;;24.70;41.20;;;;;;5035567;28;20572;-77
2023/05/04 11:38:43;;;;;;;2.42;2.28;;;24.70;41.10;;;;;;5035642;28;20196;-77
2023/05/04 11:41:11;;;;;;;2.53;2.35;;;24.70;41.20;;;;;;5035657;28;20228;-77
2023/05/04 11:43:38;;;;;;;2.33;2.22;;;24.60;41.10;;;;;;5035803;28;20220;-78
2023/05/04 11:46:06;;;;;;;2.80;2.60;;;24.60;41.20;;;;;;5035390;28;20192;-78
2023/05/04 11:48:33;;;;;;;2.47;2.30;;;24.60;41.20;;;;;;5036762;28;20208;-78
2023/05/04 11:51:00;;;;;;;2.40;2.30;;;24.60;41.20;;;;;;5035025;28;20654;-78
2023/05/04 11:53:36;;;;;;;2.60;2.40;;;24.60;41.20;;;;;;5035254;28;20209;-78
2023/05/04 11:56:03;;;;;;;2.58;2.40;;;24.60;41.90;;;;;;5036844;28;20180;-78
2023/05/04 11:58:30;;;;;;;2.53;2.33;;;24.60;41.40;;;;;;5035642;28;20200;-77
2023/05/04 12:00:58;;;;;;;2.40;2.30;;;24.60;41.40;;;;;;5017718;28;20658;-77
2023/05/04 12:03:25;;;;;;;2.30;2.20;;;24.60;41.40;;;;;;5033990;28;20216;-77
2023/05/04 12:05:53;;;;;;;2.67;2.47;;;24.60;41.50;;;;;;5033871;28;20204;-77
2023/05/04 12:08:24;;;;;;;2.50;2.30;;;24.60;41.50;;;;;;5034121;28;20227;-77
2023/05/04 12:11:13;;;;;;;2.20;2.10;;;24.50;41.50;;;;;;5017412;28;20283;-77
2023/05/04 12:13:41;;;;;;;2.45;2.28;;;24.50;41.50;;;;;;5033871;28;20710;-77
2023/05/04 12:16:11;;;;;;;2.28;2.17;;;24.50;41.60;;;;;;5033771;28;20192;-77
2023/05/04 12:18:39;;;;;;;2.67;2.47;;;24.50;41.60;;;;;;5033840;28;20665;-77
2023/05/04 12:21:10;;;;;;;2.80;2.60;;;24.50;41.70;;;;;;5033958;28;20283;-77
2023/05/04 12:23:37;;;;;;;2.70;2.50;;;24.50;41.80;;;;;;5017519;28;20215;-77
2023/05/04 12:26:06;;;;;;;2.65;2.47;;;24.40;41.70;;;;;;5033727;28;20204;-77
2023/05/04 12:28:33;;;;;;;2.55;2.40;;;24.50;41.80;;;;;;5033522;28;20705;-77
2023/05/04 12:31:00;;;;;;;2.63;2.42;;;24.50;41.80;;;;;;5017038;28;20285;-77
2023/05/04 12:33:28;;;;;;;2.40;2.30;;;24.40;41.80;;;;;;5033465;28;20699;-77
2023/05/04 12:35:55;;;;;;;2.50;2.30;;;24.50;42.00;;;;;;5033250;28;20204;-77
2023/05/04 12:38:22;;;;;;;2.45;2.30;;;24.40;41.90;;;;;;5033202;28;20198;-77
2023/05/04 12:40:49;;;;;;;2.78;2.58;;;24.40;42.00;;;;;;5033413;28;20200;-77
2023/05/04 12:43:21;;;;;;;2.40;2.25;;;24.40;42.60;;;;;;5034628;28;20270;-77
2023/05/04 12:45:48;;;;;;;2.63;2.42;;;24.40;42.10;;;;;;5034542;28;20548;-77
2023/05/04 12:48:15;;;;;;;2.38;2.28;;;24.30;42.00;;;;;;5033170;28;20633;-77
2023/05/04 12:50:44;;;;;;;2.40;2.30;;;24.40;42.20;;;;;;5034271;28;20561;-77
2023/05/04 12:53:11;;;;;;;2.30;2.20;;;24.30;42.20;;;;;;5033089;28;20216;-77